Thor Monadic — 9V8978 — position and weather

sailwx.info

Track history (hours):
 
Tides and Currents Weather Stations Pressure Air Temp Water Temp Dewpoint Dewpoint Depression Visibility Wind Speed Wind Dir Waves Ship Positions

Thor Monadic

Last reported at 2018-May-19 14:36 UTC. Time now 2018-May-22 19:52 UTC.
Position N 56°46' E 019°16'.

Length 190 m; draft 11.7 m.

Type: Cargo ship. MMSI: 564411000.

Date/timePositionNaut miles runAvg speedWind from/ knotsBaromVisibWave heightAir tempDewpointWater temp
2018-May-19 14:36N 56°46' E 019°16'311.3
2018-May-19 14:20N 56°43' E 019°13'411.3
2018-May-19 14:00N 56°40' E 019°10'611.3
2018-May-19 13:30N 56°35' E 019°05'611.3
2018-May-19 13:00N 56°30' E 019°00'511.2
2018-May-19 12:30N 56°25' E 018°55'611.1
2018-May-19 12:00N 56°20' E 018°50'4610.9
2018-May-19 07:46N 55°55' E 017°41'311.1
2018-May-19 07:30N 55°55' E 017°36'611.2
2018-May-19 07:00N 55°53' E 017°26'611.1
2018-May-19 06:30N 55°52' E 017°16'511.1
2018-May-19 06:00N 55°51' E 017°07'611.3
2018-May-19 05:30N 55°49' E 016°57'611.3
2018-May-19 05:00N 55°48' E 016°47'611.3
2018-May-19 04:30N 55°46' E 016°38'611.4
2018-May-19 04:00N 55°44' E 016°28'611.6
2018-May-19 03:30N 55°43' E 016°18'611.6
2018-May-19 03:00N 55°42' E 016°08'611.6
2018-May-19 02:30N 55°40' E 015°58'611.6
2018-May-19 02:00N 55°39' E 015°48'611.5
2018-May-19 01:30N 55°38' E 015°38'611.8
2018-May-19 01:00N 55°37' E 015°28'611.8
2018-May-19 00:30N 55°34' E 015°18'611.8
2018-May-19 00:00N 55°32' E 015°09'611.7
2018-May-18 23:30N 55°29' E 014°59'611.7
2018-May-18 23:00N 55°27' E 014°50'611.6
2018-May-18 22:30N 55°24' E 014°41'611.5
2018-May-18 22:00N 55°20' E 014°34'611.5
2018-May-18 21:30N 55°15' E 014°27'611.5
2018-May-18 21:00N 55°11' E 014°21'611.5
2018-May-18 20:30N 55°07' E 014°15'611.3
2018-May-18 20:00N 55°02' E 014°08'811.4
2018-May-18 19:16N 54°59' E 013°55'511.8
2018-May-18 18:48N 54°57' E 013°46'511.6
2018-May-18 18:24N 54°55' E 013°38'1911.2
2018-May-18 16:42N 54°49' E 013°07'510.9
2018-May-18 16:13N 54°47' E 012°59'211.0
2018-May-18 16:00N 54°47' E 012°55'811.1
2018-May-18 15:19N 54°45' E 012°42'4 9.6
2018-May-18 14:56N 54°43' E 012°36'511.2
2018-May-18 14:30N 54°41' E 012°29'2110.9
2018-May-18 12:35N 54°25' E 012°06'111.4
2018-May-18 12:29N 54°25' E 012°04'611.2
2018-May-18 11:59N 54°25' E 011°55'511.1
2018-May-18 11:30N 54°25' E 011°46'611.4
2018-May-18 11:00N 54°28' E 011°37'611.5
2018-May-18 10:30N 54°30' E 011°28'611.4
2018-May-18 10:00N 54°33' E 011°19'611.3
2018-May-18 09:30N 54°35' E 011°10'611.3
2018-May-18 09:00N 54°36' E 011°01'611.4
2018-May-18 08:30N 54°38' E 010°52'510.0
2018-May-18 08:00N 54°42' E 010°46'510.3
2018-May-18 07:30N 54°47' E 010°49'510.0
2018-May-18 07:00N 54°52' E 010°50'510.2
2018-May-18 06:30N 54°57' E 010°54'510.1
2018-May-18 06:00N 55°01' E 010°59'510.5
2018-May-18 05:30N 55°06' E 011°02'510.3
2018-May-18 05:00N 55°11' E 011°04'12 9.9
2018-May-18 03:50N 55°22' E 011°01'8710.0
2018-May-17 19:07N 56°45' E 011°50'211.2
2018-May-17 18:55N 56°47' E 011°50'511.2
2018-May-17 18:30N 56°52' E 011°47'611.4
2018-May-17 18:00N 56°57' E 011°44'611.5
2018-May-17 17:30N 57°03' E 011°40'611.6
2018-May-17 17:00N 57°08' E 011°36'611.3
2018-May-17 16:30N 57°13' E 011°32'611.0
2018-May-17 16:00N 57°19' E 011°29'511.0
2018-May-17 15:30N 57°24' E 011°25'611.1
2018-May-17 15:00N 57°29' E 011°20'510.9
2018-May-17 14:30N 57°32' E 011°13'510.8
2018-May-17 14:00N 57°36' E 011°06'510.6
2018-May-17 13:30N 57°40' E 010°58'510.6
2018-May-17 13:00N 57°43' E 010°51'510.6
2018-May-17 12:30N 57°47' E 010°43'4 8.4
2018-May-17 12:00N 57°48' E 010°36'510.4
2018-May-17 11:30N 57°48' E 010°26'510.3
2018-May-17 11:00N 57°47' E 010°16'610.2
2018-May-17 10:26N 57°45' E 010°06'21 9.6
2018-May-17 08:15N 57°40' E 009°28'4 9.3
2018-May-17 07:52N 57°39' E 009°21'3 9.4
2018-May-17 07:30N 57°38' E 009°16'5 9.8
2018-May-17 06:58N 57°36' E 009°06'5 9.8
2018-May-17 06:30N 57°34' E 008°58'20 9.2
2018-May-17 04:17N 57°21' E 008°30'4 9.0
2018-May-17 03:47N 57°18' E 008°24'6 9.4
2018-May-17 03:08N 57°13' E 008°17'2 9.4
2018-May-17 02:54N 57°11' E 008°15'4 9.3
2018-May-17 02:30N 57°08' E 008°10'4 8.1
2018-May-17 02:00N 57°05' E 008°08'5 8.4
2018-May-17 01:28N 57°00' E 008°05'5 8.3
2018-May-17 00:52N 56°56' E 008°01'7 8.1
2018-May-17 00:03N 56°50' E 007°57'1 7.9
2018-May-16 23:58N 56°49' E 007°57'4 8.0
2018-May-16 23:29N 56°45' E 007°54'8 8.0
2018-May-16 22:30N 56°38' E 007°49'14 7.0
2018-May-16 20:31N 56°26' E 007°38'1 7.1
2018-May-16 20:20N 56°24' E 007°37'5 7.0
2018-May-16 19:35N 56°20' E 007°32'1 8.9
2018-May-16 19:30N 56°19' E 007°31'85 8.2
2018-May-16 09:14N 55°10' E 006°04'4510.2
2018-May-16 04:48N 54°31' E 005°28'310.2
2018-May-16 04:29N 54°28' E 005°25'710.1
2018-May-16 03:49N 54°22' E 005°20'310.0
2018-May-16 03:30N 54°19' E 005°18'510.1
2018-May-16 03:00N 54°14' E 005°14'510.1
2018-May-16 02:30N 54°10' E 005°11'510.1
2018-May-16 02:00N 54°05' E 005°08'510.1
2018-May-16 01:30N 54°00' E 005°05'510.3
2018-May-16 01:00N 53°55' E 005°02'510.3
2018-May-16 00:30N 53°50' E 004°59'510.5
2018-May-16 00:00N 53°46' E 004°56'510.7
2018-May-15 23:30N 53°41' E 004°53'510.7
2018-May-15 23:00N 53°36' E 004°50'510.5
2018-May-15 22:30N 53°31' E 004°46'510.5
2018-May-15 22:00N 53°26' E 004°43'510.6
2018-May-15 21:30N 53°21' E 004°40'510.6
2018-May-15 21:00N 53°16' E 004°37'510.6
2018-May-15 20:30N 53°11' E 004°32'510.7
2018-May-15 20:00N 53°07' E 004°28'510.9
2018-May-15 19:30N 53°02' E 004°23'510.9
2018-May-15 19:00N 52°57' E 004°20'611.2
2018-May-15 18:30N 52°52' E 004°16'611.7
2018-May-15 18:00N 52°47' E 004°11'612.0
2018-May-15 17:30N 52°42' E 004°04'612.0
2018-May-15 17:00N 52°38' E 003°57'612.0
2018-May-15 16:30N 52°34' E 003°50'612.1
2018-May-15 16:00N 52°30' E 003°43'612.2
2018-May-15 15:30N 52°26' E 003°36'612.5
2018-May-15 15:00N 52°21' E 003°28'612.7
2018-May-15 14:30N 52°16' E 003°21'612.9
2018-May-15 14:00N 52°12' E 003°14'612.9
2018-May-15 13:30N 52°07' E 003°07'612.8
2018-May-15 13:00N 52°02' E 002°60'612.5
2018-May-15 12:30N 51°58' E 002°53'612.1
2018-May-15 12:00N 51°53' E 002°46'611.5
2018-May-15 11:29N 51°49' E 002°39'5 9.8
2018-May-15 11:00N 51°45' E 002°36'510.2
2018-May-15 10:30N 51°41' E 002°30'510.2
2018-May-15 10:00N 51°37' E 002°25'5 9.6
2018-May-15 09:26N 51°33' E 002°19'4 9.1
2018-May-15 09:01N 51°30' E 002°15'4 8.8
2018-May-15 08:30N 51°27' E 002°11'4 8.5
2018-May-15 08:00N 51°24' E 002°06'2 3.4
2018-May-15 07:31N 51°22' E 002°06'3 6.3
2018-May-15 07:01N 51°19' E 002°07'4 8.7
2018-May-15 06:30N 51°15' E 002°05'4 8.2
2018-May-15 06:01N 51°12' E 002°00'4 8.8
2018-May-15 05:30N 51°10' E 001°54'4 8.8
2018-May-15 05:00N 51°08' E 001°48'4 8.9
2018-May-15 04:30N 51°05' E 001°43'5 9.4
2018-May-15 04:00N 51°01' E 001°38'510.1
2018-May-15 03:30N 50°58' E 001°32'610.4
2018-May-15 02:56N 50°52' E 001°28'511.0
2018-May-15 02:27N 50°47' E 001°25'3110.7
2018-May-14 23:33N 50°27' E 000°48'111.2
2018-May-14 23:27N 50°27' E 000°46'2511.8
2018-May-14 21:22N 50°19' E 000°10'512.9
2018-May-14 21:00N 50°18' E 000°03'713.3
2018-May-14 20:30N 50°16' W 000°07'713.7
2018-May-14 20:00N 50°14' W 000°17'714.1
2018-May-14 19:30N 50°12' W 000°28'714.1
2018-May-14 19:00N 50°10' W 000°39'714.2
2018-May-14 18:31N 50°08' W 000°49'713.9
2018-May-14 18:00N 50°07' W 000°60'713.6
2018-May-14 17:30N 50°05' W 001°10'613.0
2018-May-14 17:00N 50°04' W 001°20'612.1
2018-May-14 16:30N 50°03' W 001°30'611.1
2018-May-14 16:00N 50°02' W 001°38'510.3
2018-May-14 15:30N 50°00' W 001°46'5 9.5
2018-May-14 15:00N 49°59' W 001°53'4 8.8
2018-May-14 14:30N 49°57' W 001°59'4 8.1
2018-May-14 14:00N 49°56' W 002°05'4 7.6
2018-May-14 13:30N 49°55' W 002°11'4 7.4
2018-May-14 13:00N 49°55' W 002°17'4 7.5
2018-May-14 12:30N 49°54' W 002°22'4 7.7
2018-May-14 12:00N 49°53' W 002°28'5 8.4
2018-May-14 11:21N 49°52' W 002°36'3 9.0
2018-May-14 11:00N 49°51' W 002°41'5 9.4
2018-May-14 10:30N 49°49' W 002°48'5 9.7
2018-May-14 10:00N 49°48' W 002°55'510.1
2018-May-14 09:30N 49°46' W 003°02'510.4
2018-May-14 09:00N 49°43' W 003°09'510.8
2018-May-14 08:30N 49°41' W 003°17'610.9
2018-May-14 08:00N 49°38' W 003°24'611.0
2018-May-14 07:28N 49°35' W 003°32'1411.4
2018-May-14 06:15N 49°29' W 003°51'2111.9
2018-May-14 04:27N 49°18' W 004°19'2412.2
2018-May-14 02:29N 49°05' W 004°50'612.1
2018-May-14 02:00N 49°02' W 004°57'612.0
2018-May-14 01:29N 48°59' W 005°06'612.2
2018-May-14 01:00N 48°56' W 005°13'612.5
2018-May-14 00:30N 48°53' W 005°22'612.3
2018-May-14 00:00N 48°50' W 005°30'811.8
2018-May-13 23:20N 48°44' W 005°38'611.9
2018-May-13 22:48N 48°38' W 005°43'411.5
2018-May-13 22:26N 48°35' W 005°46'  
2018-May-10 19:40N 36°32' W 012°12'311.3
2018-May-10 19:25N 36°29' W 012°13'711.2
2018-May-10 18:50N 36°23' W 012°15'411.0
2018-May-10 18:30N 36°19' W 012°16'611.0
2018-May-10 17:59N 36°14' W 012°17'  
Track history (hours):
 
Tides and Currents Weather Stations Pressure Air Temp Water Temp Dewpoint Dewpoint Depression Visibility Wind Speed Wind Dir Waves Ship Positions

Thor Monadic

Last reported at 2018-May-19 14:36 UTC. Time now 2018-May-22 19:52 UTC.
Position N 56°46' E 019°16'.

Length 190 m; draft 11.7 m.

Type: Cargo ship. MMSI: 564411000.

Date/timePositionNaut miles runAvg speedWind from/ knotsBaromVisibWave heightAir tempDewpointWater temp
2018-May-19 14:36N 56°46' E 019°16'311.3
2018-May-19 14:20N 56°43' E 019°13'411.3
2018-May-19 14:00N 56°40' E 019°10'611.3
2018-May-19 13:30N 56°35' E 019°05'611.3
2018-May-19 13:00N 56°30' E 019°00'511.2
2018-May-19 12:30N 56°25' E 018°55'611.1
2018-May-19 12:00N 56°20' E 018°50'4610.9
2018-May-19 07:46N 55°55' E 017°41'311.1
2018-May-19 07:30N 55°55' E 017°36'611.2
2018-May-19 07:00N 55°53' E 017°26'611.1
2018-May-19 06:30N 55°52' E 017°16'511.1
2018-May-19 06:00N 55°51' E 017°07'611.3
2018-May-19 05:30N 55°49' E 016°57'611.3
2018-May-19 05:00N 55°48' E 016°47'611.3
2018-May-19 04:30N 55°46' E 016°38'611.4
2018-May-19 04:00N 55°44' E 016°28'611.6
2018-May-19 03:30N 55°43' E 016°18'611.6
2018-May-19 03:00N 55°42' E 016°08'611.6
2018-May-19 02:30N 55°40' E 015°58'611.6
2018-May-19 02:00N 55°39' E 015°48'611.5
2018-May-19 01:30N 55°38' E 015°38'611.8
2018-May-19 01:00N 55°37' E 015°28'611.8
2018-May-19 00:30N 55°34' E 015°18'611.8
2018-May-19 00:00N 55°32' E 015°09'611.7
2018-May-18 23:30N 55°29' E 014°59'611.7
2018-May-18 23:00N 55°27' E 014°50'611.6
2018-May-18 22:30N 55°24' E 014°41'611.5
2018-May-18 22:00N 55°20' E 014°34'611.5
2018-May-18 21:30N 55°15' E 014°27'611.5
2018-May-18 21:00N 55°11' E 014°21'611.5
2018-May-18 20:30N 55°07' E 014°15'611.3
2018-May-18 20:00N 55°02' E 014°08'811.4
2018-May-18 19:16N 54°59' E 013°55'511.8
2018-May-18 18:48N 54°57' E 013°46'511.6
2018-May-18 18:24N 54°55' E 013°38'1911.2
2018-May-18 16:42N 54°49' E 013°07'510.9
2018-May-18 16:13N 54°47' E 012°59'211.0
2018-May-18 16:00N 54°47' E 012°55'811.1
2018-May-18 15:19N 54°45' E 012°42'4 9.6
2018-May-18 14:56N 54°43' E 012°36'511.2
2018-May-18 14:30N 54°41' E 012°29'2110.9
2018-May-18 12:35N 54°25' E 012°06'111.4
2018-May-18 12:29N 54°25' E 012°04'611.2
2018-May-18 11:59N 54°25' E 011°55'511.1
2018-May-18 11:30N 54°25' E 011°46'611.4
2018-May-18 11:00N 54°28' E 011°37'611.5
2018-May-18 10:30N 54°30' E 011°28'611.4
2018-May-18 10:00N 54°33' E 011°19'611.3
2018-May-18 09:30N 54°35' E 011°10'611.3
2018-May-18 09:00N 54°36' E 011°01'611.4
2018-May-18 08:30N 54°38' E 010°52'510.0
2018-May-18 08:00N 54°42' E 010°46'510.3
2018-May-18 07:30N 54°47' E 010°49'510.0
2018-May-18 07:00N 54°52' E 010°50'510.2
2018-May-18 06:30N 54°57' E 010°54'510.1
2018-May-18 06:00N 55°01' E 010°59'510.5
2018-May-18 05:30N 55°06' E 011°02'510.3
2018-May-18 05:00N 55°11' E 011°04'12 9.9
2018-May-18 03:50N 55°22' E 011°01'8710.0
2018-May-17 19:07N 56°45' E 011°50'211.2
2018-May-17 18:55N 56°47' E 011°50'511.2
2018-May-17 18:30N 56°52' E 011°47'611.4
2018-May-17 18:00N 56°57' E 011°44'611.5
2018-May-17 17:30N 57°03' E 011°40'611.6
2018-May-17 17:00N 57°08' E 011°36'611.3
2018-May-17 16:30N 57°13' E 011°32'611.0
2018-May-17 16:00N 57°19' E 011°29'511.0
2018-May-17 15:30N 57°24' E 011°25'611.1
2018-May-17 15:00N 57°29' E 011°20'510.9
2018-May-17 14:30N 57°32' E 011°13'510.8
2018-May-17 14:00N 57°36' E 011°06'510.6
2018-May-17 13:30N 57°40' E 010°58'510.6
2018-May-17 13:00N 57°43' E 010°51'510.6
2018-May-17 12:30N 57°47' E 010°43'4 8.4
2018-May-17 12:00N 57°48' E 010°36'510.4
2018-May-17 11:30N 57°48' E 010°26'510.3
2018-May-17 11:00N 57°47' E 010°16'610.2
2018-May-17 10:26N 57°45' E 010°06'21 9.6
2018-May-17 08:15N 57°40' E 009°28'4 9.3
2018-May-17 07:52N 57°39' E 009°21'3 9.4
2018-May-17 07:30N 57°38' E 009°16'5 9.8
2018-May-17 06:58N 57°36' E 009°06'5 9.8
2018-May-17 06:30N 57°34' E 008°58'20 9.2
2018-May-17 04:17N 57°21' E 008°30'4 9.0
2018-May-17 03:47N 57°18' E 008°24'6 9.4
2018-May-17 03:08N 57°13' E 008°17'2 9.4
2018-May-17 02:54N 57°11' E 008°15'4 9.3
2018-May-17 02:30N 57°08' E 008°10'4 8.1
2018-May-17 02:00N 57°05' E 008°08'5 8.4
2018-May-17 01:28N 57°00' E 008°05'5 8.3
2018-May-17 00:52N 56°56' E 008°01'7 8.1
2018-May-17 00:03N 56°50' E 007°57'1 7.9
2018-May-16 23:58N 56°49' E 007°57'4 8.0
2018-May-16 23:29N 56°45' E 007°54'8 8.0
2018-May-16 22:30N 56°38' E 007°49'14 7.0
2018-May-16 20:31N 56°26' E 007°38'1 7.1
2018-May-16 20:20N 56°24' E 007°37'5 7.0
2018-May-16 19:35N 56°20' E 007°32'1 8.9
2018-May-16 19:30N 56°19' E 007°31'85 8.2
2018-May-16 09:14N 55°10' E 006°04'4510.2
2018-May-16 04:48N 54°31' E 005°28'310.2
2018-May-16 04:29N 54°28' E 005°25'710.1
2018-May-16 03:49N 54°22' E 005°20'310.0
2018-May-16 03:30N 54°19' E 005°18'510.1
2018-May-16 03:00N 54°14' E 005°14'510.1
2018-May-16 02:30N 54°10' E 005°11'510.1
2018-May-16 02:00N 54°05' E 005°08'510.1
2018-May-16 01:30N 54°00' E 005°05'510.3
2018-May-16 01:00N 53°55' E 005°02'510.3
2018-May-16 00:30N 53°50' E 004°59'510.5
2018-May-16 00:00N 53°46' E 004°56'510.7
2018-May-15 23:30N 53°41' E 004°53'510.7
2018-May-15 23:00N 53°36' E 004°50'510.5
2018-May-15 22:30N 53°31' E 004°46'510.5
2018-May-15 22:00N 53°26' E 004°43'510.6
2018-May-15 21:30N 53°21' E 004°40'510.6
2018-May-15 21:00N 53°16' E 004°37'510.6
2018-May-15 20:30N 53°11' E 004°32'510.7
2018-May-15 20:00N 53°07' E 004°28'510.9
2018-May-15 19:30N 53°02' E 004°23'510.9
2018-May-15 19:00N 52°57' E 004°20'611.2
2018-May-15 18:30N 52°52' E 004°16'611.7
2018-May-15 18:00N 52°47' E 004°11'612.0
2018-May-15 17:30N 52°42' E 004°04'612.0
2018-May-15 17:00N 52°38' E 003°57'612.0
2018-May-15 16:30N 52°34' E 003°50'612.1
2018-May-15 16:00N 52°30' E 003°43'612.2
2018-May-15 15:30N 52°26' E 003°36'612.5
2018-May-15 15:00N 52°21' E 003°28'612.7
2018-May-15 14:30N 52°16' E 003°21'612.9
2018-May-15 14:00N 52°12' E 003°14'612.9
2018-May-15 13:30N 52°07' E 003°07'612.8
2018-May-15 13:00N 52°02' E 002°60'612.5
2018-May-15 12:30N 51°58' E 002°53'612.1
2018-May-15 12:00N 51°53' E 002°46'611.5
2018-May-15 11:29N 51°49' E 002°39'5 9.8
2018-May-15 11:00N 51°45' E 002°36'510.2
2018-May-15 10:30N 51°41' E 002°30'510.2
2018-May-15 10:00N 51°37' E 002°25'5 9.6
2018-May-15 09:26N 51°33' E 002°19'4 9.1
2018-May-15 09:01N 51°30' E 002°15'4 8.8
2018-May-15 08:30N 51°27' E 002°11'4 8.5
2018-May-15 08:00N 51°24' E 002°06'2 3.4
2018-May-15 07:31N 51°22' E 002°06'3 6.3
2018-May-15 07:01N 51°19' E 002°07'4 8.7
2018-May-15 06:30N 51°15' E 002°05'4 8.2
2018-May-15 06:01N 51°12' E 002°00'4 8.8
2018-May-15 05:30N 51°10' E 001°54'4 8.8
2018-May-15 05:00N 51°08' E 001°48'4 8.9
2018-May-15 04:30N 51°05' E 001°43'5 9.4
2018-May-15 04:00N 51°01' E 001°38'510.1
2018-May-15 03:30N 50°58' E 001°32'610.4
2018-May-15 02:56N 50°52' E 001°28'511.0
2018-May-15 02:27N 50°47' E 001°25'3110.7
2018-May-14 23:33N 50°27' E 000°48'111.2
2018-May-14 23:27N 50°27' E 000°46'2511.8
2018-May-14 21:22N 50°19' E 000°10'512.9
2018-May-14 21:00N 50°18' E 000°03'713.3
2018-May-14 20:30N 50°16' W 000°07'713.7
2018-May-14 20:00N 50°14' W 000°17'714.1
2018-May-14 19:30N 50°12' W 000°28'714.1
2018-May-14 19:00N 50°10' W 000°39'714.2
2018-May-14 18:31N 50°08' W 000°49'713.9
2018-May-14 18:00N 50°07' W 000°60'713.6
2018-May-14 17:30N 50°05' W 001°10'613.0
2018-May-14 17:00N 50°04' W 001°20'612.1
2018-May-14 16:30N 50°03' W 001°30'611.1
2018-May-14 16:00N 50°02' W 001°38'510.3
2018-May-14 15:30N 50°00' W 001°46'5 9.5
2018-May-14 15:00N 49°59' W 001°53'4 8.8
2018-May-14 14:30N 49°57' W 001°59'4 8.1
2018-May-14 14:00N 49°56' W 002°05'4 7.6
2018-May-14 13:30N 49°55' W 002°11'4 7.4
2018-May-14 13:00N 49°55' W 002°17'4 7.5
2018-May-14 12:30N 49°54' W 002°22'4 7.7
2018-May-14 12:00N 49°53' W 002°28'5 8.4
2018-May-14 11:21N 49°52' W 002°36'3 9.0
2018-May-14 11:00N 49°51' W 002°41'5 9.4
2018-May-14 10:30N 49°49' W 002°48'5 9.7
2018-May-14 10:00N 49°48' W 002°55'510.1
2018-May-14 09:30N 49°46' W 003°02'510.4
2018-May-14 09:00N 49°43' W 003°09'510.8
2018-May-14 08:30N 49°41' W 003°17'610.9
2018-May-14 08:00N 49°38' W 003°24'611.0
2018-May-14 07:28N 49°35' W 003°32'1411.4
2018-May-14 06:15N 49°29' W 003°51'2111.9
2018-May-14 04:27N 49°18' W 004°19'2412.2
2018-May-14 02:29N 49°05' W 004°50'612.1
2018-May-14 02:00N 49°02' W 004°57'612.0
2018-May-14 01:29N 48°59' W 005°06'612.2
2018-May-14 01:00N 48°56' W 005°13'612.5
2018-May-14 00:30N 48°53' W 005°22'612.3
2018-May-14 00:00N 48°50' W 005°30'811.8
2018-May-13 23:20N 48°44' W 005°38'611.9
2018-May-13 22:48N 48°38' W 005°43'411.5
2018-May-13 22:26N 48°35' W 005°46'  
2018-May-10 19:40N 36°32' W 012°12'311.3
2018-May-10 19:25N 36°29' W 012°13'711.2
2018-May-10 18:50N 36°23' W 012°15'411.0
2018-May-10 18:30N 36°19' W 012°16'611.0
2018-May-10 17:59N 36°14' W 012°17'  

Dump ship's entire track history